Jérusalem, Israel

19:25 IST le 26 février 2017 (GMT +0200)
KIbbutz Maale Hacamish | | Change Station

Alt. 2624 ft 31.82 °N, 35.11 °E | Updated 33 seconds ago

Ciel dégagé
Ciel dégagé
58.5 ° F
Paraît 58.5 ° F
N
1.0
Vent Variable Vent de SSO

Aujourd'hui
Haut(e) -- | Bas -- ° F
--% Risque de précip.
Hier
Haut(e) -- | Bas -- ° F
Precip. -- pouce
Pression 30.06 pouce
Visibilité -9999.0 Miles terrestres
Nuages
Point de rosée 28 ° F
Humidité 31%
Précipitations 0.00 pouce
Profondeur de la couche neigeuse Non disponible.
6:10 AM 5:35 PM
Nouvelle lune, 0% visible
METAR LLBG 261720Z VRB02KT CAVOK 16/11 Q1018 NOSIG
Pression 30.06 pouce
Visibilité -9999.0 Miles terrestres
Nuages
Point de rosée 28 ° F
Humidité 31%
Précipitations 0.00 pouce
Profondeur de la couche neigeuse Non disponible.
6:10 AM 5:35 PM
Nouvelle lune, 0% visible
METAR LLBG 261720Z VRB02KT CAVOK 16/11 Q1018 NOSIG

Get Your Daily Forecast Email!

Thanks for signing up!

Be on the lookout for a verification email in your inbox.

You'll start receiving the daily forecast at 8 AM.

×

10-Day Weather Forecast

No radar image for this location.
×

Almanac

Astronomie

Feb. 26, 2017 Lever Coucher
Temps réel
Crépuscule civil
Crépuscule nautique
Crépuscule astronomique
Lune
Durée de lumière visible
Longueur du jour
Tomorrow will be .
, % of the Moon is Illuminated

Extrêmes aujourd'hui

Country Highs Country Lows

Community

WunderPhotos

Upload Photos

1,962,540 Photos téléchargées !

WunderBlog® & News

Nearby

Qualité de l'air

  Qualité de l'air Indice de la qualité de l'air Polluant
Not available.

Épaisseur de neige

Station Depth Altitude

Activité sismique

Ville Distance Mag. Time & Date
Minimum magnitude displayed is 2.5.

Températures des eaux côtières

Lieu Température

Stations

Stations météo à proximité

Emplacement de la station Température Refroidissement éolien Point de rosée Humidité Vent Precip. Alt. Mise à jour Type